x

St. Augustine, Fl (sauf1) Weather Station

4:00am - Mon 24th Jul 2017 All times are EDT. -4 hours from GMT.

  • Wind
    7mph, 8mph gusts
  • Sea Temp 75°f
  • Air Temp 75°f
  • Sea Pressure 1015.7mb
  • St. Augustine, Fl
  • St. Augustine, Fl

More Historic Weather Station data

Upgrade to MSW Pro to gain access to the past 30 days of data for over 8000 Wavebouys and Weather Stations around the globe.

Join Pro

Comparision Forecast

View Surf forecast
   
Mon 07/24 4:00am 7 8 mph 1015.7mb 75f 75f
3:00am 9 13 mph 1015.7mb 75f 76f
2:00am 8 10 mph 1016.5mb 75f 75f
1:00am 7 8 mph 1017mb 75f 75f
12:00am 5 7 mph 1017.3mb 75f 76f
Sun 07/23 11:00pm 3 3 mph 1017mb 75f 76f
10:00pm 6 7 mph 1016mb 75f 76f
9:00pm 7 9 mph 1015.4mb 75f 78f
8:00pm 6 8 mph 1015.1mb 76f 79f
7:00pm 8 10 mph 1014.9mb 76f 79f
6:00pm 14 17 mph 1015mb 77f 80f
5:00pm 10 14 mph 1015.6mb 77f 78f
4:00pm 9 10 mph 1016.8mb 76f 77f
3:00pm 13 15 mph 1016.7mb 77f 77f
2:00pm 8 9 mph 1017.9mb 76f 75f
1:00pm 13 14 mph 1018.4mb 76f 76f
12:00pm 11 17 mph 1018.1mb 76f 77f
11:00am 2 2 mph 1017.6mb 76f 73f
10:00am 14 15 mph 1017.8mb 76f 83f
9:00am 8 11 mph 1017.8mb 76f 80f
8:00am 3 3 mph 1017.5mb 76f 76f
7:00am 3 5 mph 1016.9mb 77f 75f
6:00am 7 8 mph 1016.4mb 77f 76f
5:00am 5 6 mph 1015.8mb 77f 76f
4:00am 6 8 mph 1016.1mb 78f 76f
3:00am 8 10 mph 1016.7mb 78f 76f
2:00am 7 9 mph 1017.1mb 79f 75f
1:00am 7 10 mph 1017.3mb 79f 75f
12:00am 10 11 mph 1017.3mb 80f 75f
Sat 07/22 11:00pm 8 10 mph 1017.5mb 80f 75f
10:00pm 6 7 mph 1017.1mb 80f 75f
9:00pm 3 3 mph 1016.9mb 80f 75f
8:00pm 8 9 mph 1016.8mb 81f 75f
7:00pm 14 15 mph 1016.9mb 82f 76f
6:00pm 7 8 mph 1017.5mb 82f 76f
5:00pm 5 6 mph 1018.2mb 82f 75f
4:00pm 6 7 mph 1018.2mb 82f 74f
3:00pm 15 16 mph 1016.9mb 82f 82f
2:00pm 15 16 mph 1017.3mb 82f 82f
1:00pm 11 13 mph 1018.4mb 80f 82f
12:00pm 11 13 mph 1018.9mb 80f 82f
11:00am 2 3 mph 1019.4mb 80f 85f
10:00am 3 5 mph 1019.5mb 79f 85f
9:00am 8 10 mph 1019mb 80f 82f
8:00am 7 8 mph 1018.2mb 80f 78f
7:00am 6 8 mph 1017.6mb 81f 75f
6:00am 7 8 mph 1017mb 81f 75f
5:00am 5 6 mph 1016.6mb 81f 75f
4:00am 6 7 mph 1016.5mb 82f 76f
3:00am 6 7 mph 1016.7mb 82f 76f
2:00am 9 11 mph 1017.3mb 82f 76f
1:00am 7 9 mph 1017.9mb 82f 76f
12:00am 11 14 mph 1018.1mb 82f 78f
Fri 07/21 11:00pm 8 9 mph 1018.1mb 83f 80f
10:00pm 5 6 mph 1017.5mb 82f 81f
9:00pm 5 7 mph 1017.1mb 82f 82f
8:00pm 8 13 mph 1017mb 82f 85f
7:00pm 9 10 mph 1016.4mb 83f 85f
6:00pm 17 18 mph 1016.7mb 84f 82f
5:00pm 15 16 mph 1017.4mb 84f 81f
4:00pm 10 11 mph 1017.5mb 84f 81f
3:00pm 9 10 mph 1017.8mb 83f 81f
2:00pm 7 7 mph 1018.5mb 83f 81f
1:00pm 5 6 mph 1018.9mb 83f 81f
12:00pm 2 3 mph 1019.5mb 82f 82f
11:00am 6 6 mph 1019.5mb 81f 81f
10:00am 2 3 mph 1019mb 81f 80f
9:00am 6 7 mph 1018.5mb 80f 79f
8:00am 3 5 mph 1018.1mb 82f 79f
7:00am 3 5 mph 1017.2mb 82f 75f
6:00am 5 5 mph 1016.5mb 82f 75f
5:00am 2 3 mph 1016.6mb 82f 75f
4:00am 6 7 mph 1016.7mb 82f 75f
3:00am  -  1 mph 1016.7mb 83f 79f
2:00am 3 5 mph 1017.1mb 83f 78f
1:00am 2 2 mph 1018mb 83f 78f
12:00am 3 3 mph 1017.9mb 83f 80f
Thu 07/20 11:00pm 5 5 mph 1017.3mb 83f 80f
10:00pm 7 10 mph 1017.7mb 83f 81f
9:00pm 11 13 mph 1018.1mb 83f 81f
8:00pm 15 16 mph 1017.8mb 83f 82f
7:00pm 11 13 mph 1017.8mb 83f 82f
6:00pm 11 13 mph 1017.2mb 83f 82f
5:00pm 14 15 mph 1016.9mb 84f 82f
4:00pm 10 11 mph 1018mb 83f 82f
3:00pm 9 10 mph 1019.1mb 84f 82f
2:00pm 10 11 mph 1019.7mb 83f 82f
1:00pm 8 9 mph 1020.3mb 83f 81f
12:00pm 6 6 mph 1020.6mb 82f 80f
11:00am 6 6 mph 1020.7mb 81f 79f
10:00am 5 5 mph 1020.2mb 80f 79f